createdAt,value
2023-06-30T00:03:32.368Z,101541.84
2023-06-30T00:06:00.035Z,101586.19
2023-06-30T00:08:30.601Z,101607.66
2023-06-30T00:10:59.268Z,101596.91
2023-06-30T00:13:26.953Z,101577.63
2023-06-30T00:15:56.141Z,101544.13
2023-06-30T00:18:23.876Z,101509.72
2023-06-30T00:20:56.080Z,101469.09
2023-06-30T00:23:34.537Z,101438.00
2023-06-30T00:26:05.465Z,101446.72
2023-06-30T00:28:33.510Z,101447.63
2023-06-30T00:31:02.090Z,101454.53
2023-06-30T00:33:29.812Z,101457.03
2023-06-30T00:36:04.619Z,101458.91
2023-06-30T00:38:32.355Z,101479.94
2023-06-30T00:43:50.915Z,101469.38
2023-06-30T00:46:19.302Z,101449.88
2023-06-30T00:48:49.844Z,101388.13
2023-06-30T00:51:23.545Z,101376.50
2023-06-30T00:53:57.043Z,101379.22
2023-06-30T00:56:26.678Z,101373.91
2023-06-30T00:59:00.162Z,101394.25
2023-06-30T01:02:12.212Z,101424.09
2023-06-30T01:04:48.326Z,101438.94
2023-06-30T01:07:32.374Z,101453.84
2023-06-30T01:10:09.780Z,101440.75
2023-06-30T01:12:37.499Z,101433.84
2023-06-30T01:15:06.121Z,101400.31
2023-06-30T01:17:35.146Z,101396.56
2023-06-30T01:20:05.874Z,101366.59
2023-06-30T01:22:41.194Z,101339.44
2023-06-30T01:25:20.354Z,101349.84
2023-06-30T01:27:48.262Z,101362.91
2023-06-30T01:30:16.007Z,101362.41
2023-06-30T01:32:46.865Z,101373.63
2023-06-30T01:35:14.413Z,101388.53
2023-06-30T01:37:41.482Z,101412.69
2023-06-30T01:40:09.320Z,101411.59
2023-06-30T01:42:38.378Z,101399.25
2023-06-30T01:45:07.418Z,101378.94
2023-06-30T01:47:35.006Z,101374.53
2023-06-30T01:50:02.830Z,101385.91
2023-06-30T01:52:31.205Z,101401.72
2023-06-30T01:54:58.767Z,101409.72
2023-06-30T01:57:25.969Z,101407.38
2023-06-30T01:59:59.877Z,101406.28
2023-06-30T02:02:30.937Z,101402.97
2023-06-30T02:04:59.720Z,101418.66
2023-06-30T02:07:27.068Z,101407.84
2023-06-30T02:09:54.861Z,101401.59
2023-06-30T02:12:23.362Z,101392.69
2023-06-30T02:14:50.835Z,101390.09
2023-06-30T02:17:26.633Z,101390.97
2023-06-30T02:19:53.804Z,101399.25
2023-06-30T02:22:20.939Z,101398.34
2023-06-30T02:24:48.152Z,101396.66
2023-06-30T02:27:18.100Z,101404.69
2023-06-30T02:29:45.174Z,101403.38
2023-06-30T02:32:12.384Z,101392.22
2023-06-30T02:34:39.496Z,101401.13
2023-06-30T02:37:06.794Z,101394.19
2023-06-30T02:39:34.071Z,101394.56
2023-06-30T02:42:01.930Z,101392.75
2023-06-30T02:44:29.478Z,101392.09
2023-06-30T02:46:56.841Z,101405.16
2023-06-30T02:49:25.356Z,101409.50
2023-06-30T02:51:52.614Z,101414.13
2023-06-30T02:54:19.754Z,101413.19
2023-06-30T02:56:47.668Z,101408.88
2023-06-30T02:59:15.577Z,101419.41
2023-06-30T03:01:42.866Z,101418.59
2023-06-30T03:04:10.272Z,101416.75
2023-06-30T03:06:38.401Z,101420.25
2023-06-30T03:09:05.919Z,101426.44
2023-06-30T03:11:34.599Z,101433.66
2023-06-30T03:14:01.922Z,101423.78
2023-06-30T03:16:34.914Z,101423.81
2023-06-30T03:19:04.752Z,101431.69
2023-06-30T03:21:32.111Z,101428.16
2023-06-30T03:23:59.385Z,101424.47
2023-06-30T03:26:29.757Z,101422.72
2023-06-30T03:28:56.947Z,101425.41
2023-06-30T03:31:25.231Z,101426.03
2023-06-30T03:33:53.331Z,101425.28
2023-06-30T03:36:20.377Z,101428.78
2023-06-30T03:38:47.564Z,101428.75
2023-06-30T03:41:14.876Z,101411.94
2023-06-30T03:43:44.178Z,101418.88
2023-06-30T03:46:13.111Z,101419.00
2023-06-30T03:48:40.611Z,101424.97
2023-06-30T03:51:09.439Z,101416.25
2023-06-30T03:53:39.755Z,101416.38
2023-06-30T03:56:07.402Z,101407.69
2023-06-30T03:58:34.564Z,101415.25
2023-06-30T04:01:04.339Z,101414.44
2023-06-30T04:03:32.399Z,101413.66
2023-06-30T04:05:59.801Z,101412.72
2023-06-30T04:08:27.285Z,101421.41
2023-06-30T04:10:54.654Z,101407.31
2023-06-30T04:13:22.431Z,101406.50
2023-06-30T04:15:49.842Z,101400.28
2023-06-30T04:18:17.053Z,101398.69
2023-06-30T04:20:45.717Z,101393.22
2023-06-30T04:23:12.829Z,101393.34
2023-06-30T04:25:43.156Z,101389.06
2023-06-30T04:28:10.574Z,101396.91
2023-06-30T04:30:37.939Z,101395.91
2023-06-30T04:33:07.479Z,101403.94
2023-06-30T04:35:37.891Z,101404.94
2023-06-30T04:38:05.170Z,101410.09
2023-06-30T04:40:32.396Z,101404.69
2023-06-30T04:43:01.684Z,101408.25
2023-06-30T04:45:28.988Z,101407.34
2023-06-30T04:47:56.213Z,101413.50
2023-06-30T04:50:29.149Z,101404.94
2023-06-30T04:52:56.467Z,101403.31
2023-06-30T04:55:23.553Z,101408.38
2023-06-30T04:57:50.852Z,101410.22
2023-06-30T05:00:18.962Z,101399.69
2023-06-30T05:02:46.129Z,101410.06
2023-06-30T05:05:16.010Z,101415.31
2023-06-30T05:07:47.128Z,101407.59
2023-06-30T05:10:14.349Z,101416.19
2023-06-30T05:12:46.195Z,101411.84
2023-06-30T05:15:13.722Z,101417.13
2023-06-30T05:17:48.571Z,101418.78
2023-06-30T05:20:23.910Z,101421.47
2023-06-30T05:22:52.462Z,101417.72
2023-06-30T05:25:33.496Z,101413.34
2023-06-30T05:28:00.714Z,101421.13
2023-06-30T05:30:27.850Z,101420.28
2023-06-30T05:32:54.976Z,101417.63
2023-06-30T05:35:22.063Z,101419.31
2023-06-30T05:37:49.204Z,101428.22
2023-06-30T05:40:16.448Z,101426.34
2023-06-30T05:42:43.604Z,101432.63
2023-06-30T05:45:11.040Z,101436.94
2023-06-30T05:47:38.187Z,101438.72
2023-06-30T05:50:05.795Z,101441.66
2023-06-30T05:52:32.947Z,101445.16
2023-06-30T05:55:00.945Z,101446.97
2023-06-30T05:57:28.874Z,101439.63
2023-06-30T05:59:56.269Z,101433.41
2023-06-30T06:02:23.646Z,101442.13
2023-06-30T06:04:53.006Z,101443.97
2023-06-30T06:07:20.565Z,101437.84
2023-06-30T06:09:47.689Z,101450.19
2023-06-30T06:12:14.877Z,101449.13
2023-06-30T06:14:42.669Z,101447.31
2023-06-30T06:17:09.993Z,101445.44
2023-06-30T06:19:37.241Z,101447.19
2023-06-30T06:22:04.495Z,101454.19
2023-06-30T06:24:31.908Z,101446.31
2023-06-30T06:26:59.591Z,101449.94
2023-06-30T06:29:29.322Z,101455.09
2023-06-30T06:31:57.601Z,101460.53
2023-06-30T06:34:24.854Z,101454.00
2023-06-30T06:36:52.022Z,101455.88
2023-06-30T06:39:20.470Z,101461.22
2023-06-30T06:41:47.827Z,101462.84
2023-06-30T06:44:17.661Z,101468.06
2023-06-30T06:46:45.234Z,101464.53
2023-06-30T06:49:12.399Z,101469.78
2023-06-30T06:51:39.967Z,101471.47
2023-06-30T06:54:07.090Z,101459.91
2023-06-30T06:56:34.346Z,101474.03
2023-06-30T06:59:01.446Z,101467.94
2023-06-30T07:01:28.562Z,101482.47
2023-06-30T07:03:55.807Z,101478.72
2023-06-30T07:06:23.721Z,101481.03
2023-06-30T07:08:51.122Z,101479.06
2023-06-30T07:11:18.466Z,101489.66
2023-06-30T07:13:46.145Z,101486.88
2023-06-30T07:16:13.459Z,101484.19
2023-06-30T07:18:40.654Z,101487.56
2023-06-30T07:21:07.886Z,101485.72
2023-06-30T07:23:34.973Z,101488.16
2023-06-30T07:26:02.298Z,101488.78
2023-06-30T07:28:29.548Z,101486.72
2023-06-30T07:30:56.638Z,101496.31
2023-06-30T07:33:23.627Z,101487.22
2023-06-30T07:35:50.700Z,101492.34
2023-06-30T07:38:17.845Z,101493.81
2023-06-30T07:40:55.952Z,101495.47
2023-06-30T07:43:24.320Z,101488.66
2023-06-30T07:45:51.658Z,101495.47
2023-06-30T07:48:19.079Z,101494.50
2023-06-30T07:50:58.880Z,101487.88
2023-06-30T07:53:35.061Z,101491.34
2023-06-30T07:56:02.195Z,101492.94
2023-06-30T07:58:29.586Z,101492.78
2023-06-30T08:00:56.727Z,101492.13
2023-06-30T08:03:24.323Z,101495.38
2023-06-30T08:05:51.865Z,101488.41
2023-06-30T08:08:19.923Z,101496.13
2023-06-30T08:10:48.271Z,101492.34
2023-06-30T08:13:17.276Z,101484.28
2023-06-30T08:15:45.971Z,101487.38
2023-06-30T08:18:14.856Z,101489.31
2023-06-30T08:20:59.254Z,101490.91
2023-06-30T08:23:27.424Z,101491.28
2023-06-30T08:25:55.864Z,101484.16
2023-06-30T08:28:24.101Z,101483.56
2023-06-30T08:30:52.056Z,101485.97
2023-06-30T08:35:49.555Z,101482.34
2023-06-30T08:38:22.615Z,101485.63
2023-06-30T08:40:51.552Z,101478.28
2023-06-30T08:43:26.091Z,101485.78
2023-06-30T08:45:55.495Z,101491.28
2023-06-30T08:48:23.120Z,101508.09
2023-06-30T08:50:53.775Z,101504.84
2023-06-30T08:53:24.551Z,101506.28
2023-06-30T08:55:52.124Z,101508.63
2023-06-30T08:58:25.759Z,101509.09
2023-06-30T09:00:57.143Z,101507.00
2023-06-30T09:03:25.300Z,101506.31
2023-06-30T09:05:59.853Z,101508.84
2023-06-30T09:08:47.210Z,101509.81
2023-06-30T09:11:17.898Z,101507.22
2023-06-30T09:13:47.928Z,101506.88
2023-06-30T09:16:19.657Z,101503.22
2023-06-30T09:18:48.770Z,101502.38
2023-06-30T09:21:16.120Z,101509.41
2023-06-30T09:23:46.320Z,101506.28
2023-06-30T09:26:15.405Z,101508.13
2023-06-30T09:28:46.466Z,101509.13
2023-06-30T09:31:15.900Z,101512.06
2023-06-30T09:33:55.276Z,101507.44
2023-06-30T09:36:25.878Z,101511.25
2023-06-30T09:39:02.224Z,101507.78
2023-06-30T09:41:35.722Z,101504.66
2023-06-30T09:44:08.293Z,101505.53
2023-06-30T09:46:37.630Z,101512.66
2023-06-30T09:49:06.048Z,101509.22
2023-06-30T09:51:38.987Z,101512.75
2023-06-30T09:54:13.414Z,101516.91
2023-06-30T09:56:46.740Z,101518.16
2023-06-30T09:59:17.140Z,101512.97
2023-06-30T10:01:52.810Z,101508.66
2023-06-30T10:04:20.304Z,101517.03
2023-06-30T10:06:49.334Z,101522.59
2023-06-30T10:09:21.494Z,101512.38
2023-06-30T10:12:10.289Z,101524.63
2023-06-30T10:14:42.601Z,101525.59
2023-06-30T10:17:10.346Z,101528.63
2023-06-30T10:19:40.810Z,101532.88
2023-06-30T10:22:08.554Z,101539.00
2023-06-30T10:24:44.847Z,101537.94
2023-06-30T10:27:19.792Z,101534.88
2023-06-30T10:29:51.033Z,101530.91
2023-06-30T10:32:21.851Z,101536.88
2023-06-30T10:34:53.201Z,101539.66
2023-06-30T10:37:24.616Z,101539.66
2023-06-30T10:39:57.018Z,101539.50
2023-06-30T10:42:29.784Z,101539.38
2023-06-30T10:45:01.312Z,101554.28
2023-06-30T10:47:35.416Z,101545.84
2023-06-30T10:50:13.774Z,101550.97
2023-06-30T10:52:52.938Z,101550.63
2023-06-30T10:55:27.868Z,101545.97
2023-06-30T10:58:05.661Z,101546.78
2023-06-30T11:00:37.473Z,101545.91
2023-06-30T11:03:07.335Z,101548.09
2023-06-30T11:05:38.960Z,101551.31
2023-06-30T11:08:09.316Z,101553.47
2023-06-30T11:10:48.664Z,101552.59
2023-06-30T11:13:40.127Z,101561.41
2023-06-30T11:16:07.297Z,101568.19
2023-06-30T11:18:40.314Z,101562.78
2023-06-30T11:21:08.263Z,101567.59
2023-06-30T11:23:38.939Z,101565.19
2023-06-30T11:26:22.913Z,101574.44
2023-06-30T11:28:50.332Z,101570.19
2023-06-30T11:31:18.509Z,101562.81
2023-06-30T11:33:47.237Z,101567.81
2023-06-30T11:36:15.209Z,101577.94
2023-06-30T11:38:50.444Z,101569.69
2023-06-30T11:41:24.844Z,101563.13
2023-06-30T11:43:57.451Z,101558.19
2023-06-30T11:46:26.374Z,101562.28
2023-06-30T11:49:03.716Z,101567.63
2023-06-30T11:51:37.318Z,101561.38
2023-06-30T11:54:04.588Z,101557.97
2023-06-30T11:56:31.843Z,101561.88
2023-06-30T11:59:03.933Z,101548.00
2023-06-30T12:01:36.811Z,101552.59
2023-06-30T12:04:24.476Z,101554.38
2023-06-30T12:06:56.673Z,101558.75
2023-06-30T12:09:24.375Z,101556.56
2023-06-30T12:11:51.598Z,101549.97
2023-06-30T12:14:28.441Z,101537.03
2023-06-30T12:16:56.535Z,101543.34
2023-06-30T12:19:30.296Z,101546.19
2023-06-30T12:22:03.094Z,101539.88
2023-06-30T12:24:35.387Z,101543.22
2023-06-30T12:27:07.749Z,101536.69
2023-06-30T12:29:37.140Z,101546.44
2023-06-30T12:32:18.461Z,101547.53
2023-06-30T12:34:47.491Z,101547.75
2023-06-30T12:37:20.206Z,101538.03
2023-06-30T12:39:48.273Z,101546.97
2023-06-30T12:42:15.457Z,101547.19
2023-06-30T12:44:42.726Z,101536.34
2023-06-30T12:47:10.135Z,101530.47
2023-06-30T12:49:38.523Z,101527.94
2023-06-30T12:52:06.450Z,101534.50
2023-06-30T12:54:36.662Z,101536.72
2023-06-30T12:57:12.341Z,101525.50
2023-06-30T12:59:39.631Z,101538.22
2023-06-30T13:02:13.599Z,101527.84
2023-06-30T13:04:40.874Z,101531.50
2023-06-30T13:07:08.115Z,101526.84
2023-06-30T13:09:35.418Z,101522.88
2023-06-30T13:12:03.213Z,101517.47
2023-06-30T13:14:30.911Z,101521.69
2023-06-30T13:16:57.982Z,101524.50
2023-06-30T13:19:26.330Z,101536.84
2023-06-30T13:21:53.515Z,101527.13
2023-06-30T13:24:21.430Z,101527.03
2023-06-30T13:26:48.678Z,101517.19
2023-06-30T13:29:16.337Z,101516.38
2023-06-30T13:31:43.762Z,101526.09
2023-06-30T13:34:30.835Z,101510.59
2023-06-30T13:37:06.065Z,101505.63
2023-06-30T13:39:45.631Z,101503.03
2023-06-30T13:42:19.306Z,101504.06
2023-06-30T13:44:51.842Z,101503.03
2023-06-30T13:47:21.522Z,101511.59
2023-06-30T13:49:52.067Z,101500.97
2023-06-30T13:52:22.440Z,101509.25
2023-06-30T13:54:54.510Z,101500.03
2023-06-30T13:57:21.772Z,101493.50
2023-06-30T13:59:53.726Z,101484.25
2023-06-30T14:02:24.394Z,101485.00
2023-06-30T14:04:56.564Z,101491.19
2023-06-30T14:10:15.689Z,101484.50
2023-06-30T14:12:50.364Z,101485.09
2023-06-30T14:15:23.069Z,101484.63
2023-06-30T14:18:00.749Z,101488.97
2023-06-30T14:20:32.289Z,101483.88
2023-06-30T14:23:13.437Z,101475.00
2023-06-30T14:26:04.827Z,101475.97
2023-06-30T14:28:42.696Z,101472.78
2023-06-30T14:31:16.319Z,101470.91
2023-06-30T14:33:46.180Z,101469.50
2023-06-30T14:36:22.420Z,101463.53
2023-06-30T14:38:49.898Z,101470.09
2023-06-30T14:41:30.156Z,101457.09
2023-06-30T14:44:01.650Z,101466.81
2023-06-30T14:46:43.222Z,101468.53
2023-06-30T14:49:16.751Z,101455.75
2023-06-30T14:51:45.712Z,101454.88
2023-06-30T14:54:23.603Z,101450.47
2023-06-30T14:56:56.682Z,101442.78
2023-06-30T14:59:39.885Z,101449.28
2023-06-30T15:02:18.346Z,101452.44
2023-06-30T15:04:55.103Z,101436.41
2023-06-30T15:07:28.525Z,101440.53
2023-06-30T15:09:57.476Z,101438.56
2023-06-30T15:12:32.410Z,101426.03
2023-06-30T15:15:03.877Z,101444.88
2023-06-30T15:17:38.460Z,101442.47
2023-06-30T15:20:18.094Z,101442.06
2023-06-30T15:22:50.472Z,101419.34
2023-06-30T15:25:33.808Z,101435.47
2023-06-30T15:28:01.884Z,101427.91
2023-06-30T15:30:32.144Z,101429.47
2023-06-30T15:33:02.641Z,101426.25
2023-06-30T15:35:31.964Z,101417.75
2023-06-30T15:38:04.334Z,101412.72
2023-06-30T15:40:33.667Z,101410.78
2023-06-30T15:43:08.418Z,101421.06
2023-06-30T15:45:41.218Z,101413.09
2023-06-30T15:48:16.598Z,101409.97
2023-06-30T15:50:46.647Z,101404.94
2023-06-30T15:53:16.126Z,101405.28
2023-06-30T15:55:53.991Z,101396.22
2023-06-30T15:58:33.153Z,101396.41
2023-06-30T16:01:05.836Z,101394.34
2023-06-30T16:03:33.242Z,101384.72
2023-06-30T16:06:06.549Z,101391.41
2023-06-30T16:08:37.305Z,101400.03
2023-06-30T16:11:10.413Z,101393.38
2023-06-30T16:13:38.449Z,101404.78
2023-06-30T16:16:05.947Z,101395.91
2023-06-30T16:18:37.724Z,101398.91
2023-06-30T16:21:08.637Z,101390.63
2023-06-30T16:23:39.194Z,101384.94
2023-06-30T16:26:32.951Z,101386.34
2023-06-30T16:29:12.060Z,101383.84
2023-06-30T16:31:40.239Z,101387.97
2023-06-30T16:34:24.965Z,101385.31
2023-06-30T16:37:05.636Z,101388.47
2023-06-30T16:39:38.090Z,101384.25
2023-06-30T16:42:08.804Z,101383.63
2023-06-30T16:44:35.895Z,101385.66
2023-06-30T16:47:06.717Z,101383.63
2023-06-30T16:49:41.635Z,101379.53
2023-06-30T16:52:09.300Z,101378.56
2023-06-30T16:54:39.754Z,101376.00
2023-06-30T16:57:22.639Z,101381.50
2023-06-30T17:00:03.727Z,101380.97
2023-06-30T17:02:36.679Z,101374.59
2023-06-30T17:05:05.623Z,101380.72
2023-06-30T17:07:38.421Z,101376.88
2023-06-30T17:10:12.515Z,101370.50
2023-06-30T17:12:40.332Z,101374.81
2023-06-30T17:15:13.342Z,101372.75
2023-06-30T17:17:43.619Z,101378.56
2023-06-30T17:20:10.997Z,101377.34
2023-06-30T17:22:38.731Z,101385.44
2023-06-30T17:25:09.156Z,101387.56
2023-06-30T17:27:39.345Z,101386.94
2023-06-30T17:30:27.826Z,101372.28
2023-06-30T17:33:11.501Z,101378.72
2023-06-30T17:35:43.600Z,101379.00
2023-06-30T17:38:12.376Z,101381.59
2023-06-30T17:40:54.187Z,101382.44
2023-06-30T17:43:32.393Z,101379.72
2023-06-30T17:46:02.095Z,101385.47
2023-06-30T17:48:29.230Z,101400.00
2023-06-30T17:50:56.784Z,101388.34
2023-06-30T17:53:27.008Z,101374.72
2023-06-30T17:55:54.238Z,101372.72
2023-06-30T17:58:24.532Z,101381.47
2023-06-30T18:00:52.827Z,101369.50
2023-06-30T18:06:17.138Z,101382.34
2023-06-30T18:08:47.696Z,101387.75
2023-06-30T18:11:25.598Z,101384.03
2023-06-30T18:13:52.787Z,101388.88
2023-06-30T18:16:19.919Z,101386.53
2023-06-30T18:18:49.484Z,101387.63
2023-06-30T18:21:31.227Z,101382.63
2023-06-30T18:24:02.064Z,101383.63
2023-06-30T18:26:32.112Z,101394.88
2023-06-30T18:29:04.995Z,101393.78
2023-06-30T18:31:45.208Z,101389.91
2023-06-30T18:34:24.390Z,101390.81
2023-06-30T18:37:08.213Z,101403.00
2023-06-30T18:39:40.502Z,101404.22
2023-06-30T18:42:10.188Z,101393.91
2023-06-30T18:44:49.310Z,101395.75
2023-06-30T18:47:24.458Z,101406.25
2023-06-30T18:49:55.549Z,101399.22
2023-06-30T18:52:25.295Z,101409.75
2023-06-30T18:55:08.377Z,101408.81
2023-06-30T19:00:20.594Z,101411.53
2023-06-30T19:02:50.913Z,101416.88
2023-06-30T19:05:22.895Z,101416.44
2023-06-30T19:07:50.841Z,101419.22
2023-06-30T19:10:24.522Z,101417.03
2023-06-30T19:12:57.179Z,101415.72
2023-06-30T19:15:26.789Z,101413.38
2023-06-30T19:18:00.159Z,101416.47
2023-06-30T19:20:36.299Z,101424.78
2023-06-30T19:23:10.935Z,101425.50
2023-06-30T19:25:57.109Z,101422.84
2023-06-30T19:28:29.785Z,101424.25
2023-06-30T19:31:02.547Z,101429.94
2023-06-30T19:33:42.669Z,101425.84
2023-06-30T19:36:24.634Z,101423.50
2023-06-30T19:39:05.860Z,101422.34
2023-06-30T19:41:49.920Z,101435.50
2023-06-30T19:44:18.991Z,101437.25
2023-06-30T19:46:47.749Z,101444.13
2023-06-30T19:49:24.057Z,101438.19
2023-06-30T19:51:52.925Z,101438.56
2023-06-30T19:54:20.002Z,101454.84
2023-06-30T19:56:47.130Z,101451.38
2023-06-30T19:59:14.356Z,101459.03
2023-06-30T20:01:44.604Z,101457.47
2023-06-30T20:04:14.932Z,101459.53
2023-06-30T20:06:42.386Z,101470.94
2023-06-30T20:09:16.951Z,101477.06
2023-06-30T20:11:47.942Z,101465.59
2023-06-30T20:14:21.706Z,101467.88
2023-06-30T20:16:52.198Z,101473.28
2023-06-30T20:19:19.685Z,101479.25
2023-06-30T20:21:54.330Z,101490.22
2023-06-30T20:24:30.245Z,101483.09
2023-06-30T20:27:01.406Z,101488.13
2023-06-30T20:29:31.752Z,101492.00
2023-06-30T20:31:59.273Z,101486.38
2023-06-30T20:34:29.911Z,101485.25
2023-06-30T20:36:59.483Z,101490.25
2023-06-30T20:39:28.734Z,101487.84
2023-06-30T20:41:55.902Z,101489.38
2023-06-30T20:44:23.175Z,101489.78
2023-06-30T20:46:53.891Z,101495.97
2023-06-30T20:49:21.052Z,101497.13
2023-06-30T20:51:48.157Z,101492.84
2023-06-30T20:54:21.302Z,101499.50
2023-06-30T20:56:52.672Z,101502.22
2023-06-30T20:59:23.360Z,101499.16
2023-06-30T21:01:55.667Z,101497.72
2023-06-30T21:04:25.077Z,101497.53
2023-06-30T21:06:59.357Z,101497.25
2023-06-30T21:09:29.456Z,101504.44
2023-06-30T21:12:01.433Z,101492.53
2023-06-30T21:14:40.405Z,101496.94
2023-06-30T21:17:11.812Z,101504.91
2023-06-30T21:19:41.015Z,101506.47
2023-06-30T21:22:14.975Z,101496.34
2023-06-30T21:24:42.080Z,101490.88
2023-06-30T21:27:11.406Z,101502.31
2023-06-30T21:29:41.728Z,101502.22
2023-06-30T21:32:10.468Z,101512.06
2023-06-30T21:34:37.715Z,101507.63
2023-06-30T21:37:14.232Z,101507.72
2023-06-30T21:39:44.371Z,101501.75
2023-06-30T21:42:11.643Z,101506.94
2023-06-30T21:44:40.955Z,101500.34
2023-06-30T21:47:08.599Z,101496.31
2023-06-30T21:49:38.123Z,101501.69
2023-06-30T21:52:05.902Z,101498.91
2023-06-30T21:54:47.165Z,101504.69
2023-06-30T21:57:19.412Z,101497.81
2023-06-30T21:59:55.477Z,101498.25
2023-06-30T22:02:22.923Z,101498.38
2023-06-30T22:04:50.535Z,101503.94
2023-06-30T22:07:17.813Z,101502.69
2023-06-30T22:09:47.279Z,101506.50
2023-06-30T22:12:17.774Z,101505.66
2023-06-30T22:14:45.197Z,101507.28
2023-06-30T22:17:12.390Z,101508.63
2023-06-30T22:19:42.794Z,101500.69
2023-06-30T22:22:14.585Z,101506.63
2023-06-30T22:24:41.873Z,101515.88
2023-06-30T22:27:09.047Z,101513.75
2023-06-30T22:29:36.541Z,101510.00
2023-06-30T22:32:04.157Z,101513.16
2023-06-30T22:34:33.753Z,101509.53
2023-06-30T22:37:03.764Z,101508.44
2023-06-30T22:39:30.855Z,101496.66
2023-06-30T22:41:58.670Z,101497.63
2023-06-30T22:44:28.603Z,101488.78
2023-06-30T22:46:55.893Z,101493.63
2023-06-30T22:49:23.217Z,101497.22
2023-06-30T22:51:50.414Z,101494.00
2023-06-30T22:54:17.579Z,101496.97
2023-06-30T22:56:47.820Z,101482.03
2023-06-30T22:59:19.499Z,101488.88
2023-06-30T23:01:46.912Z,101477.72
2023-06-30T23:04:14.223Z,101470.78
2023-06-30T23:06:41.601Z,101478.63
2023-06-30T23:09:11.323Z,101477.16
2023-06-30T23:11:43.433Z,101471.63
2023-06-30T23:14:10.869Z,101467.19
2023-06-30T23:16:40.815Z,101475.31
2023-06-30T23:19:09.707Z,101491.34
2023-06-30T23:21:38.401Z,101496.31
2023-06-30T23:24:11.188Z,101503.38
2023-06-30T23:26:41.624Z,101506.28
2023-06-30T23:29:12.006Z,101515.72
2023-06-30T23:31:43.136Z,101505.19
2023-06-30T23:34:15.128Z,101524.22
2023-06-30T23:36:43.853Z,101513.50
2023-06-30T23:39:11.587Z,101515.25
2023-06-30T23:41:38.624Z,101499.38
2023-06-30T23:44:06.838Z,101506.59
2023-06-30T23:46:34.101Z,101506.22
2023-06-30T23:49:04.066Z,101517.53
2023-06-30T23:51:36.918Z,101517.66
2023-06-30T23:54:04.295Z,101502.06
2023-06-30T23:56:31.407Z,101506.66
2023-06-30T23:58:58.618Z,101510.44
